Time;durP1;ratioP1;P1;durP2;ratioP2;P2;SDS_P1;SDS_P2;PMS_P1;PMS_P2;Temp;Humidity;BMP_temperature;BMP_pressure;BME280_temperature;BME280_humidity;BME280_pressure;Samples;Min_cycle;Max_cycle;Signal;HPM_P1;HPM_P2
2021/10/16 00:01:31;;;;;;;23.95;4.63;;;;;;;10.09;46.34;99961.34;5113695;28;20059;-75
2021/10/16 00:03:57;;;;;;;27.58;5.93;;;;;;;10.08;46.61;99964.94;5079618;28;20402;-76
2021/10/16 00:06:23;;;;;;;34.42;6.28;;;;;;;10.00;47.17;99956.59;5096409;28;20484;-76
2021/10/16 00:08:49;;;;;;;19.67;4.97;;;;;;;9.99;48.40;99958.41;5079581;28;20040;-75
2021/10/16 00:11:14;;;;;;;21.48;6.47;;;;;;;9.80;49.17;99949.94;5046131;28;20043;-77
2021/10/16 00:13:41;;;;;;;18.67;6.28;;;;;;;9.87;49.33;99962.78;5063250;28;20047;-76
2021/10/16 00:16:09;;;;;;;21.80;6.05;;;;;;;9.79;49.31;99949.09;5096339;28;20044;-75
2021/10/16 00:18:35;;;;;;;18.92;5.55;;;;;;;9.80;50.55;99965.97;5096559;28;20047;-75
2021/10/16 00:21:01;;;;;;;18.00;5.35;;;;;;;9.77;49.41;99961.69;5079778;28;20051;-75
2021/10/16 00:23:27;;;;;;;23.23;5.63;;;;;;;9.81;50.86;99976.53;5113344;28;20051;-75
2021/10/16 00:25:53;;;;;;;16.17;5.60;;;;;;;9.84;49.31;99984.34;5096216;28;20046;-74
2021/10/16 00:28:19;;;;;;;17.88;5.35;;;;;;;9.87;49.41;99986.81;5062787;28;20039;-75
2021/10/16 00:30:45;;;;;;;21.15;6.53;;;;;;;9.88;49.54;100001.88;5062429;28;20079;-75
2021/10/16 00:33:11;;;;;;;21.63;5.10;;;;;;;9.63;49.49;99953.75;5078919;28;20131;-75
2021/10/16 00:35:37;;;;;;;16.95;5.38;;;;;;;9.74;48.98;99961.88;5095873;28;20046;-76
2021/10/16 00:38:03;;;;;;;27.92;5.88;;;;;;;9.92;48.64;99968.66;5062486;28;20039;-74
2021/10/16 00:40:29;;;;;;;19.08;5.30;;;;;;;9.92;49.05;99975.81;5096394;28;20043;-77
2021/10/16 00:42:55;;;;;;;17.70;5.22;;;;;;;10.03;48.62;99980.44;5095042;28;20051;-75
2021/10/16 00:45:23;;;;;;;21.88;5.85;;;;;;;10.06;48.42;99982.91;5045541;28;20051;-75
2021/10/16 00:47:49;;;;;;;21.95;5.85;;;;;;;9.97;48.46;99977.22;5079192;28;20068;-75
2021/10/16 00:50:15;;;;;;;21.55;5.50;;;;;;;10.06;48.37;100004.28;5078820;28;20040;-77
2021/10/16 00:52:41;;;;;;;20.58;5.65;;;;;;;10.00;48.58;99999.34;5062139;28;20035;-75
2021/10/16 00:55:08;;;;;;;18.10;5.55;;;;;;;10.06;48.86;99978.41;5062130;28;20081;-75
2021/10/16 00:57:34;;;;;;;14.10;5.88;;;;;;;10.03;48.83;99983.09;5078826;28;20043;-75
2021/10/16 01:00:01;;;;;;;12.43;5.05;;;;;;;10.09;49.11;99983.56;5062330;28;20082;-76
2021/10/16 01:02:27;;;;;;;12.48;5.30;;;;;;;10.01;50.14;99971.69;5095192;28;20498;-74
2021/10/16 01:04:53;;;;;;;10.18;4.97;;;;;;;10.02;49.91;99960.03;5078432;28;20119;-75
2021/10/16 01:07:19;;;;;;;8.98;4.55;;;;;;;9.97;50.69;99958.53;5078939;28;20047;-75
2021/10/16 01:09:46;;;;;;;7.50;4.53;;;;;;;9.92;50.88;99943.75;5095303;28;20039;-75
2021/10/16 01:12:11;;;;;;;8.55;4.60;;;;;;;9.93;50.72;99940.16;5061808;28;20169;-75
2021/10/16 01:14:47;;;;;;;13.57;4.57;;;;;;;9.96;50.93;99929.25;5045392;28;20518;-75
2021/10/16 01:17:13;;;;;;;8.70;4.63;;;;;;;10.10;50.33;99933.66;5062197;28;20144;-75
2021/10/16 01:19:41;;;;;;;15.30;5.03;;;;;;;10.15;50.22;99936.84;5061801;28;20040;-75
2021/10/16 01:22:07;;;;;;;8.27;4.57;;;;;;;10.00;51.52;99959.28;5061808;28;20514;-75
2021/10/16 01:24:34;;;;;;;10.25;4.78;;;;;;;9.94;51.65;99964.06;5045274;28;20039;-76
2021/10/16 01:27:00;;;;;;;6.53;4.38;;;;;;;10.00;50.89;99972.63;5078453;28;20050;-75
2021/10/16 01:29:26;;;;;;;6.70;4.28;;;;;;;10.05;50.77;99967.84;5112003;28;20060;-75
2021/10/16 01:31:52;;;;;;;8.00;4.80;;;;;;;10.17;50.92;99969.69;5095066;28;20043;-75
2021/10/16 01:34:18;;;;;;;11.10;4.65;;;;;;;10.16;50.55;99960.81;5111956;28;20471;-74
2021/10/16 01:36:45;;;;;;;19.25;5.50;;;;;;;10.21;50.47;99960.47;5078200;28;20031;-75
2021/10/16 01:39:13;;;;;;;19.37;5.43;;;;;;;10.21;49.79;99965.84;5061919;28;20073;-76
2021/10/16 01:41:41;;;;;;;23.40;5.80;;;;;;;10.15;49.43;99971.59;5078890;28;20104;-74
2021/10/16 01:44:09;;;;;;;14.23;5.80;;;;;;;10.17;49.18;99975.88;5046012;28;20369;-74
2021/10/16 01:46:35;;;;;;;18.38;5.50;;;;;;;10.12;49.06;99977.16;5095384;28;20496;-76
2021/10/16 01:49:22;;;;;;;15.60;6.00;;;;;;;10.03;49.59;99994.63;5078582;28;20153;-76
2021/10/16 01:51:53;;;;;;;13.23;5.43;;;;;;;9.70;50.10;99977.28;5095283;28;20032;-75
2021/10/16 01:54:19;;;;;;;13.38;5.40;;;;;;;9.63;50.36;99996.47;5094913;28;20051;-74
2021/10/16 01:56:53;;;;;;;20.45;6.25;;;;;;;9.62;49.97;99986.72;5096070;28;20031;-75
2021/10/16 01:59:23;;;;;;;21.30;5.78;;;;;;;9.66;50.09;99990.91;5078151;28;20557;-76
2021/10/16 02:02:10;;;;;;;21.27;6.13;;;;;;;9.65;49.74;99982.03;5083352;28;20051;-75
2021/10/16 02:04:43;;;;;;;25.02;5.88;;;;;;;9.70;50.14;99993.28;5080163;28;20071;-76
2021/10/16 02:07:09;;;;;;;23.83;5.95;;;;;;;9.65;49.71;99994.53;5078209;28;20043;-75
2021/10/16 02:09:35;;;;;;;14.32;5.43;;;;;;;9.71;49.83;99996.81;5044656;28;20474;-76
2021/10/16 02:12:01;;;;;;;15.48;5.97;;;;;;;9.72;49.90;100001.19;5111754;28;20126;-76
2021/10/16 02:14:32;;;;;;;19.55;5.50;;;;;;;9.64;50.74;100003.50;5094819;28;20074;-75
2021/10/16 02:17:02;;;;;;;13.63;5.95;;;;;;;9.57;50.89;100011.06;5066875;28;20151;-75
2021/10/16 02:19:28;;;;;;;13.60;5.47;;;;;;;9.38;51.25;100019.38;5098744;28;20509;-75
2021/10/16 02:21:56;;;;;;;14.27;5.90;;;;;;;9.28;51.26;99996.91;5081852;28;20043;-76
2021/10/16 02:24:24;;;;;;;16.80;5.78;;;;;;;9.25;51.95;100029.13;5065623;28;20051;-76
2021/10/16 02:26:50;;;;;;;13.65;5.85;;;;;;;9.03;52.44;100013.66;5081652;28;20096;-75
2021/10/16 02:29:21;;;;;;;12.48;6.45;;;;;;;8.97;53.65;100028.19;5066169;28;20483;-76
2021/10/16 02:31:58;;;;;;;21.05;6.80;;;;;;;8.86;53.63;100025.34;5100109;28;20135;-76
2021/10/16 02:34:24;;;;;;;17.20;6.72;;;;;;;8.75;54.53;100036.66;5098297;28;20059;-76
2021/10/16 02:36:55;;;;;;;9.73;6.97;;;;;;;8.62;55.65;100035.72;5082287;28;20075;-77
2021/10/16 02:39:21;;;;;;;15.07;7.97;;;;;;;8.41;56.39;100027.19;5082306;28;20039;-76
2021/10/16 02:41:47;;;;;;;11.43;7.28;;;;;;;8.49;56.19;100034.72;5048677;28;20511;-76
2021/10/16 02:44:13;;;;;;;12.85;7.53;;;;;;;8.38;56.75;100047.84;5065331;28;20044;-75
2021/10/16 02:46:43;;;;;;;12.20;7.43;;;;;;;8.36;56.22;100045.25;5098630;28;20047;-75
2021/10/16 02:49:09;;;;;;;13.18;6.85;;;;;;;8.41;56.33;100047.66;5081709;28;20050;-75
2021/10/16 02:51:35;;;;;;;12.95;6.18;;;;;;;8.28;56.41;100034.19;5064579;28;20043;-76
2021/10/16 02:54:01;;;;;;;15.10;7.18;;;;;;;8.21;56.80;100046.16;5047824;28;20514;-76
2021/10/16 02:56:27;;;;;;;12.05;6.78;;;;;;;8.00;57.77;100046.44;5081268;28;20118;-75
2021/10/16 02:58:54;;;;;;;14.02;6.85;;;;;;;8.13;57.91;100045.75;5064858;28;20398;-80
2021/10/16 03:01:20;;;;;;;11.65;6.25;;;;;;;8.36;58.52;100047.91;5065002;28;20135;-79
2021/10/16 03:03:47;;;;;;;12.18;6.13;;;;;;;9.20;58.77;100041.91;5097958;28;20043;-77
2021/10/16 03:06:13;;;;;;;15.98;6.85;;;;;;;9.33;54.37;100050.84;5047798;28;20047;-77
2021/10/16 03:08:39;;;;;;;14.52;6.97;;;;;;;8.94;54.51;100043.53;5097989;28;20123;-73
2021/10/16 03:11:11;;;;;;;11.32;6.75;;;;;;;8.63;55.19;100037.44;5098291;28;20040;-75
2021/10/16 03:13:39;;;;;;;14.10;6.83;;;;;;;8.32;56.07;100046.38;5048497;28;20546;-75
2021/10/16 03:16:10;;;;;;;9.82;6.72;;;;;;;8.18;56.37;100067.63;5080955;28;20289;-76
2021/10/16 03:18:37;;;;;;;15.47;7.87;;;;;;;8.09;56.42;100057.53;5065354;28;20047;-76
2021/10/16 03:21:03;;;;;;;17.95;7.88;;;;;;;7.92;57.07;100054.03;5063863;28;20584;-75
2021/10/16 03:23:30;;;;;;;10.55;7.45;;;;;;;7.79;57.03;100039.72;5047193;28;20491;-75
2021/10/16 03:25:56;;;;;;;14.05;7.70;;;;;;;7.71;57.68;100052.59;5096902;28;20099;-76
2021/10/16 03:28:22;;;;;;;20.17;7.93;;;;;;;7.64;57.74;100043.28;5097235;28;20127;-75
2021/10/16 03:30:49;;;;;;;14.38;7.55;;;;;;;7.68;58.09;100050.97;5047312;28;20062;-75
2021/10/16 03:33:15;;;;;;;14.30;8.35;;;;;;;7.60;57.99;100060.31;5096896;28;20051;-75
2021/10/16 03:35:42;;;;;;;15.32;7.80;;;;;;;7.58;58.25;100073.72;5063923;28;20490;-76
2021/10/16 03:38:08;;;;;;;13.90;8.13;;;;;;;7.65;58.08;100085.75;5080252;28;20040;-76
2021/10/16 03:40:34;;;;;;;12.77;8.13;;;;;;;7.67;57.76;100072.34;5063312;28;20148;-79
2021/10/16 03:43:04;;;;;;;18.20;7.60;;;;;;;7.49;58.69;100061.81;5081287;28;20103;-78
2021/10/16 03:45:29;;;;;;;16.08;7.72;;;;;;;7.52;58.57;100064.31;5096310;28;20051;-77
2021/10/16 03:47:55;;;;;;;21.60;8.80;;;;;;;7.42;58.68;100068.41;5079522;28;20478;-76
2021/10/16 03:50:22;;;;;;;18.98;9.02;;;;;;;7.48;58.96;100067.19;5069793;28;20079;-77
2021/10/16 03:52:48;;;;;;;17.42;9.82;;;;;;;7.50;58.60;100067.97;5048360;28;20040;-77
2021/10/16 03:55:14;;;;;;;14.15;8.82;;;;;;;7.52;58.49;100068.72;5007068;28;20048;-77
2021/10/16 03:57:41;;;;;;;12.95;7.95;;;;;;;7.52;58.55;100074.94;5040124;28;20052;-78
2021/10/16 04:00:15;;;;;;;12.77;8.50;;;;;;;7.59;58.10;100079.91;5040285;28;20107;-79
2021/10/16 04:02:49;;;;;;;14.13;9.10;;;;;;;7.62;57.77;100090.38;5042759;28;20052;-77
2021/10/16 04:05:14;;;;;;;14.98;8.73;;;;;;;7.62;57.58;100083.25;5040278;28;20497;-76
2021/10/16 04:07:41;;;;;;;15.80;8.38;;;;;;;7.72;57.56;100087.13;5023185;28;20495;-76
2021/10/16 04:10:07;;;;;;;17.38;8.57;;;;;;;7.63;57.70;100087.63;5056420;28;20041;-78
2021/10/16 04:12:34;;;;;;;17.20;8.98;;;;;;;7.65;58.13;100096.38;5056060;28;20049;-76
2021/10/16 04:15:00;;;;;;;15.02;8.57;;;;;;;7.58;58.10;100099.47;5039368;28;20056;-79
2021/10/16 04:17:31;;;;;;;18.30;8.65;;;;;;;7.64;58.29;100115.13;5024630;28;20051;-79
2021/10/16 04:19:57;;;;;;;12.20;7.07;;;;;;;7.77;58.08;100113.47;5055991;28;20091;-74
2021/10/16 04:22:24;;;;;;;18.20;7.68;;;;;;;7.85;57.45;100119.22;5007046;28;20140;-76
2021/10/16 04:24:50;;;;;;;17.40;7.78;;;;;;;7.86;57.06;100120.94;5022546;28;20048;-77
2021/10/16 04:27:16;;;;;;;14.95;7.38;;;;;;;7.90;57.32;100118.94;5006399;28;20044;-75
2021/10/16 04:29:52;;;;;;;9.65;6.35;;;;;;;8.03;56.86;100136.81;5009339;28;20098;-76
2021/10/16 04:32:30;;;;;;;12.38;6.80;;;;;;;8.24;55.82;100125.88;5057948;28;20047;-76
2021/10/16 04:34:58;;;;;;;11.55;6.88;;;;;;;8.31;55.54;100116.56;5022927;28;20056;-76
2021/10/16 04:37:24;;;;;;;12.63;6.75;;;;;;;8.51;54.83;100123.44;5005170;28;20075;-75
2021/10/16 04:39:50;;;;;;;9.55;6.10;;;;;;;8.47;54.56;100144.09;5055453;28;20072;-76
2021/10/16 04:42:17;;;;;;;8.65;5.63;;;;;;;8.44;54.66;100144.25;5055509;28;20069;-76
2021/10/16 04:44:44;;;;;;;25.58;5.88;;;;;;;8.49;54.55;100142.16;5038413;28;20503;-76
2021/10/16 04:47:11;;;;;;;7.47;5.57;;;;;;;8.63;54.02;100144.03;5022731;28;20521;-76
2021/10/16 04:49:38;;;;;;;8.00;5.80;;;;;;;8.83;53.30;100147.31;5055491;28;20439;-75
2021/10/16 04:52:07;;;;;;;8.98;5.10;;;;;;;8.96;52.64;100145.63;5007208;28;20142;-75
2021/10/16 04:54:33;;;;;;;6.68;4.25;;;;;;;8.77;52.31;100151.22;5005279;28;20048;-76
2021/10/16 04:56:59;;;;;;;6.50;4.35;;;;;;;8.78;52.75;100152.94;5038544;28;20071;-75
2021/10/16 04:59:27;;;;;;;5.60;4.50;;;;;;;8.67;52.24;100142.03;5022660;28;20067;-75
2021/10/16 05:01:54;;;;;;;11.15;4.43;;;;;;;8.74;52.17;100148.72;5071741;28;20483;-75
2021/10/16 05:04:21;;;;;;;7.00;4.20;;;;;;;8.77;51.71;100151.22;5038959;28;20046;-76
2021/10/16 05:06:47;;;;;;;8.20;4.35;;;;;;;8.99;51.12;100162.31;5038647;28;20044;-75
2021/10/16 05:09:14;;;;;;;9.70;4.35;;;;;;;8.93;51.19;100153.81;5022679;28;20093;-75
2021/10/16 05:11:40;;;;;;;7.35;4.35;;;;;;;9.02;50.81;100157.72;5005822;28;20044;-75
2021/10/16 05:14:07;;;;;;;14.60;4.13;;;;;;;9.19;50.02;100130.88;5038562;28;20048;-77
2021/10/16 05:16:33;;;;;;;5.45;3.53;;;;;;;9.10;49.79;100158.09;5038609;28;20079;-76
2021/10/16 05:19:00;;;;;;;5.32;3.63;;;;;;;9.22;48.91;100152.06;5022071;28;20442;-76
2021/10/16 05:21:26;;;;;;;7.97;3.72;;;;;;;9.12;49.39;100166.91;5038572;28;20098;-76
2021/10/16 05:23:54;;;;;;;5.80;4.47;;;;;;;9.05;49.60;100165.53;5006301;28;20040;-76
2021/10/16 05:26:21;;;;;;;4.40;3.72;;;;;;;9.13;49.51;100155.25;5038716;28;20105;-75
2021/10/16 05:28:47;;;;;;;9.63;3.92;;;;;;;9.25;49.15;100154.50;5005422;28;20032;-76
2021/10/16 05:31:13;;;;;;;6.95;3.95;;;;;;;9.45;48.95;100172.81;5038308;28;20453;-75
2021/10/16 05:33:39;;;;;;;5.53;4.32;;;;;;;9.51;48.40;100168.03;5021773;28;20532;-75
2021/10/16 05:36:05;;;;;;;10.63;4.45;;;;;;;9.45;48.22;100159.47;5054723;28;20090;-77
2021/10/16 05:38:31;;;;;;;8.45;4.30;;;;;;;9.63;48.61;100169.97;5071614;28;20048;-76
2021/10/16 05:40:57;;;;;;;5.15;4.07;;;;;;;9.77;47.54;100169.06;5054476;28;20119;-77
2021/10/16 05:43:24;;;;;;;6.55;4.68;;;;;;;9.80;47.31;100174.22;5022006;28;20497;-76
2021/10/16 05:45:54;;;;;;;8.52;4.55;;;;;;;9.87;47.13;100171.06;5022885;28;20044;-76
2021/10/16 05:48:20;;;;;;;4.90;4.03;;;;;;;9.83;47.10;100182.91;5021377;28;20041;-76
2021/10/16 05:50:46;;;;;;;7.13;4.25;;;;;;;9.96;46.91;100182.97;5041576;28;20123;-76
2021/10/16 05:53:15;;;;;;;17.10;5.15;;;;;;;9.79;47.33;100175.19;5010750;28;20079;-75
2021/10/16 05:55:42;;;;;;;16.65;4.45;;;;;;;10.11;46.83;100173.09;5027357;28;20048;-76
2021/10/16 05:58:08;;;;;;;9.32;5.50;;;;;;;10.33;46.45;100173.44;5026797;28;20097;-75
2021/10/16 06:00:34;;;;;;;9.10;4.03;;;;;;;10.41;45.68;100172.94;5043139;28;20052;-76
2021/10/16 06:03:01;;;;;;;10.23;5.80;;;;;;;10.42;45.52;100172.88;5026484;28;20140;-75
2021/10/16 06:05:37;;;;;;;7.70;4.82;;;;;;;10.49;45.60;100169.75;5075748;28;20083;-76
2021/10/16 06:08:04;;;;;;;5.95;3.90;;;;;;;10.48;45.41;100150.19;5026190;28;20036;-75
2021/10/16 06:10:30;;;;;;;6.03;3.88;;;;;;;10.62;44.46;100159.97;5041828;28;20048;-77
2021/10/16 06:12:57;;;;;;;4.03;3.55;;;;;;;10.68;44.77;100170.25;5025468;28;20044;-78
2021/10/16 06:15:23;;;;;;;6.18;4.10;;;;;;;10.70;44.74;100166.50;5025095;28;20540;-78
2021/10/16 06:17:49;;;;;;;6.70;3.67;;;;;;;10.73;43.86;100169.97;5025396;28;20040;-76
2021/10/16 06:20:16;;;;;;;5.22;3.25;;;;;;;10.63;43.82;100169.72;5058350;28;20503;-77
2021/10/16 06:22:42;;;;;;;3.28;2.97;;;;;;;10.65;43.45;100176.69;5008630;28;20055;-76
2021/10/16 06:25:08;;;;;;;10.15;3.72;;;;;;;10.47;43.81;100156.50;5008881;28;20136;-76
2021/10/16 06:27:34;;;;;;;5.55;3.80;;;;;;;10.38;44.20;100155.31;5025021;28;20040;-76
2021/10/16 06:30:01;;;;;;;5.43;3.38;;;;;;;10.45;44.47;100167.31;5041221;28;20131;-76
2021/10/16 06:32:29;;;;;;;4.13;3.08;;;;;;;10.39;44.05;100151.69;5041663;28;20139;-75
2021/10/16 06:34:55;;;;;;;4.22;3.08;;;;;;;10.59;43.45;100161.03;5025067;28;20047;-77
2021/10/16 06:37:22;;;;;;;8.40;3.47;;;;;;;10.60;43.53;100173.44;5041405;28;20051;-76
2021/10/16 06:39:48;;;;;;;6.88;3.42;;;;;;;10.59;43.56;100173.56;5019343;28;20038;-76
2021/10/16 06:42:14;;;;;;;8.70;3.55;;;;;;;10.74;43.17;100172.50;5040280;28;20040;-75
2021/10/16 06:45:04;;;;;;;6.60;3.63;;;;;;;10.63;42.95;100143.81;5050633;28;20076;-77
2021/10/16 06:47:42;;;;;;;8.07;4.53;;;;;;;10.79;42.92;100157.00;5027388;28;20135;-76
2021/10/16 06:50:31;;;;;;;3.60;3.00;;;;;;;10.77;40.98;100172.31;5033818;28;20101;-76
2021/10/16 06:52:57;;;;;;;3.58;2.72;;;;;;;10.67;40.85;100155.16;5024580;28;20048;-76
2021/10/16 06:55:24;;;;;;;4.38;2.25;;;;;;;10.86;40.74;100155.63;5006380;28;20044;-77
2021/10/16 06:57:50;;;;;;;4.70;2.80;;;;;;;10.78;40.56;100152.63;5005608;28;20045;-77
2021/10/16 07:00:16;;;;;;;5.18;2.60;;;;;;;10.85;40.77;100142.38;5037982;28;20049;-77
2021/10/16 07:02:43;;;;;;;3.75;2.83;;;;;;;10.97;40.61;100141.53;5020976;28;20040;-77
2021/10/16 07:05:12;;;;;;;8.18;2.70;;;;;;;11.12;38.43;100156.50;5006910;28;20043;-76
2021/10/16 07:07:38;;;;;;;4.78;2.55;;;;;;;10.99;38.37;100149.47;5038082;28;20388;-76
2021/10/16 07:10:05;;;;;;;3.72;2.30;;;;;;;10.99;38.77;100138.75;5023123;28;20048;-76
2021/10/16 07:12:33;;;;;;;4.07;2.22;;;;;;;10.84;37.68;100146.03;5024130;28;20048;-75
2021/10/16 07:14:59;;;;;;;4.65;2.30;;;;;;;10.93;37.92;100132.00;5008059;28;20416;-77
2021/10/16 07:17:26;;;;;;;4.13;2.70;;;;;;;11.01;37.15;100131.47;5024181;28;20052;-76
2021/10/16 07:19:52;;;;;;;4.38;2.30;;;;;;;11.06;37.29;100124.00;5040216;28;20037;-75
2021/10/16 07:22:18;;;;;;;4.05;2.35;;;;;;;11.12;37.28;100155.66;5073686;28;20040;-76
2021/10/16 07:24:44;;;;;;;3.83;2.78;;;;;;;11.21;37.29;100138.97;5057114;28;20449;-76
2021/10/16 07:27:10;;;;;;;5.30;2.50;;;;;;;11.23;37.54;100153.09;5023708;28;20045;-75
2021/10/16 07:29:37;;;;;;;7.78;3.20;;;;;;;11.25;37.84;100145.84;5023649;28;20052;-77
2021/10/16 07:32:03;;;;;;;3.15;2.80;;;;;;;11.45;37.71;100146.25;5040356;28;20106;-76
2021/10/16 07:34:29;;;;;;;4.05;2.95;;;;;;;11.82;37.41;100134.59;5023242;28;20047;-75
2021/10/16 07:36:55;;;;;;;3.97;2.85;;;;;;;12.24;37.58;100132.44;5023314;28;20044;-75
2021/10/16 07:39:21;;;;;;;5.70;3.00;;;;;;;12.35;36.42;100137.88;5040190;28;20044;-76
2021/10/16 07:41:47;;;;;;;5.32;2.95;;;;;;;12.43;36.03;100144.47;5040346;28;20047;-75
2021/10/16 07:44:13;;;;;;;5.85;3.80;;;;;;;12.32;35.70;100130.03;5023555;28;20411;-76
2021/10/16 07:46:39;;;;;;;3.70;2.80;;;;;;;12.27;36.35;100134.06;5039608;28;20049;-77
2021/10/16 07:49:05;;;;;;;2.45;2.25;;;;;;;12.15;35.61;100117.91;5023657;28;20040;-76
2021/10/16 07:51:32;;;;;;;5.45;2.95;;;;;;;12.28;35.79;100114.31;5007106;28;20074;-76
2021/10/16 07:53:58;;;;;;;5.45;2.80;;;;;;;12.29;35.39;100140.13;5056082;28;20522;-76
2021/10/16 07:56:24;;;;;;;3.75;2.90;;;;;;;12.33;35.52;100134.44;5039511;28;20033;-76
2021/10/16 07:58:50;;;;;;;3.78;2.90;;;;;;;12.17;35.45;100141.06;5039551;28;20052;-76
2021/10/16 08:01:15;;;;;;;2.53;2.33;;;;;;;12.23;35.12;100128.06;5022970;28;20529;-76
2021/10/16 08:03:42;;;;;;;2.78;2.47;;;;;;;12.46;34.84;100138.91;5039333;28;20106;-77
2021/10/16 08:06:08;;;;;;;4.72;2.35;;;;;;;12.37;34.48;100143.97;5039431;28;20124;-75
2021/10/16 08:08:33;;;;;;;2.63;2.35;;;;;;;12.14;34.74;100152.84;5022938;28;20046;-75
2021/10/16 08:11:00;;;;;;;3.40;2.25;;;;;;;12.17;34.72;100136.53;5039490;28;20161;-77
2021/10/16 08:13:28;;;;;;;5.82;2.92;;;;;;;12.20;34.81;100136.31;5022503;28;20089;-76
2021/10/16 08:15:54;;;;;;;2.58;2.38;;;;;;;12.45;34.45;100142.53;5039902;28;20502;-76
2021/10/16 08:18:20;;;;;;;2.35;2.05;;;;;;;12.67;34.26;100131.03;5006728;28;20044;-77
2021/10/16 08:20:47;;;;;;;3.00;1.80;;;;;;;12.65;32.50;100131.16;5022709;28;20040;-75
2021/10/16 08:23:13;;;;;;;3.05;1.80;;;;;;;12.60;32.59;100136.88;5072443;28;20047;-76
2021/10/16 08:25:39;;;;;;;3.30;2.70;;;;;;;12.58;33.04;100149.53;5038955;28;20399;-75
2021/10/16 08:28:12;;;;;;;4.40;2.38;;;;;;;12.72;33.58;100151.19;5038978;28;20201;-76
2021/10/16 08:30:40;;;;;;;2.97;2.30;;;;;;;12.96;33.35;100136.84;5022391;28;20057;-76
2021/10/16 08:33:06;;;;;;;2.40;2.20;;;;;;;13.32;32.58;100149.28;5022289;28;20082;-75
2021/10/16 08:35:32;;;;;;;2.47;2.10;;;;;;;13.45;33.10;100143.78;5039076;28;20147;-76
2021/10/16 08:37:58;;;;;;;2.75;2.38;;;;;;;13.74;31.82;100146.84;5038812;28;20432;-75
2021/10/16 08:40:27;;;;;;;8.15;2.13;;;;;;;13.79;31.85;100142.78;5038679;28;20044;-78
2021/10/16 08:42:53;;;;;;;2.10;1.90;;;;;;;13.94;31.50;100145.22;5038312;28;20131;-75
2021/10/16 08:45:19;;;;;;;5.22;2.00;;;;;;;14.06;31.17;100128.94;5054661;28;20037;-76
2021/10/16 08:47:45;;;;;;;5.25;2.00;;;;;;;14.51;31.41;100126.13;5055445;28;20114;-77
2021/10/16 08:50:11;;;;;;;4.60;2.22;;;;;;;14.38;30.54;100117.38;5038625;28;20054;-77
2021/10/16 08:52:37;;;;;;;4.22;2.05;;;;;;;14.09;30.15;100133.22;5005863;28;20040;-76
2021/10/16 08:55:04;;;;;;;2.17;1.98;;;;;;;13.95;30.58;100131.63;5055031;28;20044;-77
2021/10/16 08:57:33;;;;;;;2.30;2.10;;;;;;;14.23;30.42;100141.00;5038531;28;20041;-78
2021/10/16 08:59:59;;;;;;;5.63;2.15;;;;;;;14.43;30.56;100120.50;5022062;28;20071;-76
2021/10/16 09:02:35;;;;;;;2.88;2.00;;;;;;;14.37;30.47;100115.66;5038347;28;20071;-77
2021/10/16 09:05:12;;;;;;;3.40;2.70;;;;;;;14.38;30.23;100111.13;5038288;28;20415;-76
2021/10/16 09:07:38;;;;;;;4.75;2.45;;;;;;;14.62;30.40;100122.53;5036022;28;20044;-75
2021/10/16 09:10:22;;;;;;;7.28;2.33;;;;;;;14.81;30.22;100127.22;5069628;28;20066;-76
2021/10/16 09:12:48;;;;;;;5.75;2.60;;;;;;;14.74;30.53;100123.34;5055210;28;20515;-77
2021/10/16 09:15:23;;;;;;;4.57;2.60;;;;;;;14.73;30.04;100111.72;5022282;28;20044;-75
2021/10/16 09:18:05;;;;;;;12.85;4.07;;;;;;;14.98;30.33;100115.03;5021432;28;20044;-80
2021/10/16 09:20:38;;;;;;;4.82;3.08;;;;;;;15.30;29.97;100114.91;5071453;28;20040;-76
2021/10/16 09:23:09;;;;;;;5.78;2.88;;;;;;;15.17;29.86;100104.34;5025967;28;20048;-76
2021/10/16 09:25:35;;;;;;;5.50;3.03;;;;;;;15.52;29.68;100105.78;5070737;28;20131;-77
2021/10/16 09:28:18;;;;;;;5.20;2.90;;;;;;;15.45;28.93;100094.69;5071713;28;20107;-79
2021/10/16 09:30:47;;;;;;;7.32;3.20;;;;;;;15.74;29.07;100099.38;5061160;28;20114;-76
2021/10/16 09:33:13;;;;;;;4.28;2.70;;;;;;;15.73;29.14;100101.22;5077935;28;20043;-80
2021/10/16 09:35:39;;;;;;;4.05;3.00;;;;;;;15.49;28.93;100096.13;5061777;28;20557;-78
2021/10/16 09:38:06;;;;;;;4.97;2.80;;;;;;;15.72;37.16;100113.00;5112540;28;20039;-84
2021/10/16 09:40:36;;;;;;;5.53;3.38;;;;;;;15.97;29.59;100095.44;5079143;28;20455;-87
2021/10/16 09:43:18;;;;;;;5.45;3.20;;;;;;;16.19;32.40;100086.25;5079035;28;20555;-89
2021/10/16 09:45:45;;;;;;;12.98;5.00;;;;;;;16.18;29.87;100089.97;5078583;28;20054;-83
2021/10/16 09:48:11;;;;;;;5.72;4.25;;;;;;;16.35;30.10;100076.75;5062289;28;20101;-83
2021/10/16 09:50:37;;;;;;;8.73;3.50;;;;;;;16.31;31.61;100094.22;5095980;28;20512;-82
2021/10/16 09:53:23;;;;;;;5.10;3.75;;;;;;;16.42;31.81;100099.47;5044917;28;20035;-86
2021/10/16 09:55:50;;;;;;;5.75;3.08;;;;;;;16.67;29.35;100079.16;5079128;28;20047;-86
2021/10/16 09:58:16;;;;;;;3.95;3.00;;;;;;;17.05;30.73;100086.38;5063343;28;20394;-84
2021/10/16 10:00:42;;;;;;;4.88;2.90;;;;;;;17.43;29.01;100079.13;5046044;28;20040;-82
2021/10/16 10:03:08;;;;;;;7.30;2.95;;;;;;;17.78;29.44;100085.66;5094278;28;20095;-84
2021/10/16 10:05:34;;;;;;;7.10;2.60;;;;;;;18.07;27.67;100075.53;5061145;28;20460;-86
2021/10/16 10:08:00;;;;;;;6.32;3.10;;;;;;;17.80;25.63;100073.72;5043944;28;20036;-76
2021/10/16 10:10:26;;;;;;;7.40;3.47;;;;;;;16.89;26.30;100083.44;5110171;28;20052;-75
2021/10/16 10:12:51;;;;;;;5.95;3.50;;;;;;;16.43;27.09;100066.09;5110460;28;20061;-77
2021/10/16 10:15:18;;;;;;;6.03;3.42;;;;;;;16.77;26.75;100062.97;5043814;28;20043;-76
2021/10/16 10:17:44;;;;;;;3.72;3.20;;;;;;;16.74;26.44;100083.88;5111103;28;20039;-76
2021/10/16 10:20:12;;;;;;;8.07;4.20;;;;;;;16.16;27.54;100075.75;5043943;28;20058;-75
2021/10/16 10:22:40;;;;;;;4.93;3.20;;;;;;;16.49;27.37;100081.72;5093851;28;20043;-76
2021/10/16 10:25:25;;;;;;;3.00;2.20;;;;;;;16.40;26.88;100058.31;5043968;28;20040;-77
2021/10/16 10:27:55;;;;;;;7.05;3.10;;;;;;;16.60;26.92;100070.78;5077838;28;20071;-77
2021/10/16 10:30:38;;;;;;;4.78;3.45;;;;;;;17.08;27.03;100060.94;5060626;28;20410;-78
2021/10/16 10:33:16;;;;;;;3.50;3.10;;;;;;;17.49;26.15;100056.91;5076531;28;20039;-78
2021/10/16 10:36:00;;;;;;;7.15;3.20;;;;;;;17.34;25.44;100074.59;5094355;28;20138;-78
2021/10/16 10:38:34;;;;;;;5.25;2.75;;;;;;;17.12;25.80;100063.19;5081337;28;20115;-77
2021/10/16 10:41:26;;;;;;;5.32;3.45;;;;;;;17.15;25.95;100062.00;5074019;28;20039;-77
2021/10/16 10:43:53;;;;;;;9.02;3.90;;;;;;;16.99;26.15;100063.47;5057939;28;20060;-79
2021/10/16 10:46:27;;;;;;;4.72;3.20;;;;;;;17.15;26.20;100057.47;5057025;28;20040;-77
2021/10/16 10:48:53;;;;;;;6.28;3.03;;;;;;;17.35;25.82;100068.22;5077698;28;20047;-76
2021/10/16 10:51:38;;;;;;;5.53;2.80;;;;;;;16.61;26.50;100069.78;5056085;28;20136;-77
2021/10/16 10:54:17;;;;;;;3.72;2.67;;;;;;;16.56;26.49;100047.78;5041701;28;20127;-77
2021/10/16 10:56:51;;;;;;;4.35;2.78;;;;;;;16.64;26.21;100061.41;5040285;28;20036;-76
2021/10/16 10:59:18;;;;;;;4.15;2.70;;;;;;;17.07;26.33;100070.84;5054956;28;20067;-77
2021/10/16 11:01:52;;;;;;;8.30;3.42;;;;;;;16.88;26.21;100060.09;5024083;28;20048;-76
2021/10/16 11:04:34;;;;;;;6.60;3.67;;;;;;;17.34;26.21;100051.16;5057524;28;20490;-77
2021/10/16 11:07:02;;;;;;;7.07;3.40;;;;;;;17.79;25.77;100066.59;5040385;28;20454;-76
2021/10/16 11:09:28;;;;;;;11.52;2.95;;;;;;;18.24;25.10;100057.63;5041454;28;20135;-76
2021/10/16 11:11:54;;;;;;;3.22;2.70;;;;;;;18.83;24.90;100058.78;5007392;28;20145;-76
2021/10/16 11:14:20;;;;;;;6.25;2.67;;;;;;;19.29;24.27;100061.28;5023791;28;20513;-76
2021/10/16 11:17:09;;;;;;;7.53;3.63;;;;;;;19.60;23.65;100048.03;5040339;28;20040;-76
2021/10/16 11:19:45;;;;;;;;;;;;;;;19.87;23.23;100057.81;5025602;28;20127;-76
2021/10/16 11:22:11;;;;;;;8.13;3.33;;;;;;;20.00;23.45;100060.06;5040541;28;20038;-76
2021/10/16 11:24:37;;;;;;;7.53;3.80;;;;;;;19.73;22.94;100053.03;5023975;28;20048;-76
2021/10/16 11:27:04;;;;;;;7.07;3.30;;;;;;;19.15;23.41;100055.47;5039867;28;20496;-75
2021/10/16 11:29:34;;;;;;;9.15;2.83;;;;;;;18.78;23.40;100046.75;5056532;28;20399;-77
2021/10/16 11:32:13;;;;;;;3.30;2.60;;;;;;;19.05;23.54;100056.56;5056330;28;20114;-77